Copper Creek, Canada
Current Conditions -  °F | °C
As of 4:00 AM on Friday 21 Nov 2014 (Local Time) from CYKA Reporting Station
Scattered Clouds Scattered Clouds  
Wind Chill: 29°   Ceiling: Unl
Heat Index: 37°   Visibility: 40mi
Dew Point: 30°   Wind: 13mph
Humidity: 75%   Direction: 130°SE
Pressure: 29.82"   Gusts: NA
Location:  50.8°N, 120.76°W
Report Text: CYKA 211200Z 13011KT 40SM FEW110 SCT250 03/M01 A2982 RMK AC2CI2 SLP111
Loading
Personal Weather Stations






























Interactive Weather Map New forecast layout! Learn more

10-Day Weather Forecast

Advertisements
Track Severe Weather on mobile